sensor_id;sensor_type;location;lat;lon;timestamp;pressure;altitude;pressure_sealevel;temperature;humidity
67545;BME280;54380;47.770;11.150;2023-04-21T00:02:17;94475.53;;;5.98;65.85
67545;BME280;54380;47.770;11.150;2023-04-21T00:04:43;94464.75;;;5.94;66.06
67545;BME280;54380;47.770;11.150;2023-04-21T00:07:12;94456.28;;;5.92;66.15
67545;BME280;54380;47.770;11.150;2023-04-21T00:09:40;94463.94;;;5.93;66.52
67545;BME280;54380;47.770;11.150;2023-04-21T00:12:06;94449.59;;;5.96;66.09
67545;BME280;54380;47.770;11.150;2023-04-21T00:14:34;94444.34;;;5.96;66.29
67545;BME280;54380;47.770;11.150;2023-04-21T00:17:02;94450.72;;;6.00;66.70
67545;BME280;54380;47.770;11.150;2023-04-21T00:19:28;94444.47;;;6.01;66.07
67545;BME280;54380;47.770;11.150;2023-04-21T00:21:55;94449.91;;;6.00;66.27
67545;BME280;54380;47.770;11.150;2023-04-21T00:24:24;94442.78;;;5.95;66.31
67545;BME280;54380;47.770;11.150;2023-04-21T00:26:51;94438.06;;;5.97;66.55
67545;BME280;54380;47.770;11.150;2023-04-21T00:29:17;94426.13;;;6.01;66.50
67545;BME280;54380;47.770;11.150;2023-04-21T00:31:44;94432.72;;;6.04;66.02
67545;BME280;54380;47.770;11.150;2023-04-21T00:34:12;94428.97;;;6.00;65.83
67545;BME280;54380;47.770;11.150;2023-04-21T00:36:39;94435.00;;;6.00;65.81
67545;BME280;54380;47.770;11.150;2023-04-21T00:39:05;94433.41;;;5.99;65.65
67545;BME280;54380;47.770;11.150;2023-04-21T00:41:34;94424.44;;;5.95;66.10
67545;BME280;54380;47.770;11.150;2023-04-21T00:44:02;94430.69;;;5.94;66.33
67545;BME280;54380;47.770;11.150;2023-04-21T00:46:30;94435.13;;;5.93;66.03
67545;BME280;54380;47.770;11.150;2023-04-21T00:48:57;94423.03;;;5.92;66.60
67545;BME280;54380;47.770;11.150;2023-04-21T00:51:26;94419.19;;;5.95;66.56
67545;BME280;54380;47.770;11.150;2023-04-21T00:53:53;94417.13;;;5.97;66.16
67545;BME280;54380;47.770;11.150;2023-04-21T00:56:21;94415.84;;;6.00;66.58
67545;BME280;54380;47.770;11.150;2023-04-21T00:58:48;94413.59;;;6.03;66.17
67545;BME280;54380;47.770;11.150;2023-04-21T01:01:15;94410.72;;;6.05;66.26
67545;BME280;54380;47.770;11.150;2023-04-21T01:03:43;94411.50;;;6.05;65.70
67545;BME280;54380;47.770;11.150;2023-04-21T01:06:10;94408.09;;;6.05;65.88
67545;BME280;54380;47.770;11.150;2023-04-21T01:08:39;94407.78;;;6.01;66.17
67545;BME280;54380;47.770;11.150;2023-04-21T01:11:09;94405.38;;;6.00;66.35
67545;BME280;54380;47.770;11.150;2023-04-21T01:13:38;94405.38;;;6.00;66.39
67545;BME280;54380;47.770;11.150;2023-04-21T01:16:06;94402.28;;;6.03;66.03
67545;BME280;54380;47.770;11.150;2023-04-21T01:18:35;94407.88;;;6.06;65.72
67545;BME280;54380;47.770;11.150;2023-04-21T01:21:02;94398.66;;;6.04;66.07
67545;BME280;54380;47.770;11.150;2023-04-21T01:23:31;94386.81;;;6.01;65.71
67545;BME280;54380;47.770;11.150;2023-04-21T01:25:57;94396.25;;;6.02;65.87
67545;BME280;54380;47.770;11.150;2023-04-21T01:28:24;94397.31;;;6.01;65.77
67545;BME280;54380;47.770;11.150;2023-04-21T01:30:51;94397.03;;;6.03;65.78
67545;BME280;54380;47.770;11.150;2023-04-21T01:33:20;94389.66;;;6.00;66.24
67545;BME280;54380;47.770;11.150;2023-04-21T01:35:47;94382.06;;;5.98;66.24
67545;BME280;54380;47.770;11.150;2023-04-21T01:38:17;94386.03;;;6.01;65.83
67545;BME280;54380;47.770;11.150;2023-04-21T01:40:47;94382.06;;;5.98;65.86
67545;BME280;54380;47.770;11.150;2023-04-21T01:43:15;94376.47;;;5.94;65.87
67545;BME280;54380;47.770;11.150;2023-04-21T01:45:42;94379.91;;;5.95;66.11
67545;BME280;54380;47.770;11.150;2023-04-21T01:48:09;94381.13;;;5.92;65.48
67545;BME280;54380;47.770;11.150;2023-04-21T01:50:38;94372.59;;;5.85;66.18
67545;BME280;54380;47.770;11.150;2023-04-21T01:53:05;94375.91;;;5.81;65.60
67545;BME280;54380;47.770;11.150;2023-04-21T01:55:33;94383.91;;;5.74;65.56
67545;BME280;54380;47.770;11.150;2023-04-21T01:58:01;94375.72;;;5.70;66.40
67545;BME280;54380;47.770;11.150;2023-04-21T02:00:28;94365.25;;;5.70;66.41
67545;BME280;54380;47.770;11.150;2023-04-21T02:02:55;94367.06;;;5.70;65.86
67545;BME280;54380;47.770;11.150;2023-04-21T02:05:22;94370.94;;;5.67;66.09
67545;BME280;54380;47.770;11.150;2023-04-21T02:07:49;94380.75;;;5.60;66.15
67545;BME280;54380;47.770;11.150;2023-04-21T02:10:15;94383.25;;;5.55;66.41
67545;BME280;54380;47.770;11.150;2023-04-21T02:12:43;94386.59;;;5.50;66.88
67545;BME280;54380;47.770;11.150;2023-04-21T02:15:11;94386.00;;;5.48;67.32
67545;BME280;54380;47.770;11.150;2023-04-21T02:17:37;94386.34;;;5.52;66.83
67545;BME280;54380;47.770;11.150;2023-04-21T02:20:05;94386.44;;;5.57;66.86
67545;BME280;54380;47.770;11.150;2023-04-21T02:22:32;94387.00;;;5.59;67.03
67545;BME280;54380;47.770;11.150;2023-04-21T02:25:01;94393.03;;;5.60;66.52
67545;BME280;54380;47.770;11.150;2023-04-21T02:27:28;94391.22;;;5.60;66.68
67545;BME280;54380;47.770;11.150;2023-04-21T02:29:58;94394.19;;;5.64;66.75
67545;BME280;54380;47.770;11.150;2023-04-21T02:32:26;94397.69;;;5.69;66.67
67545;BME280;54380;47.770;11.150;2023-04-21T02:34:53;94393.81;;;5.72;66.99
67545;BME280;54380;47.770;11.150;2023-04-21T02:37:19;94402.25;;;5.74;66.53
67545;BME280;54380;47.770;11.150;2023-04-21T02:39:46;94404.88;;;5.74;66.46
67545;BME280;54380;47.770;11.150;2023-04-21T02:42:13;94401.78;;;5.77;66.47
67545;BME280;54380;47.770;11.150;2023-04-21T02:44:40;94407.81;;;5.78;66.35
67545;BME280;54380;47.770;11.150;2023-04-21T02:47:08;94414.41;;;5.80;67.01
67545;BME280;54380;47.770;11.150;2023-04-21T02:49:39;94416.78;;;5.82;66.64
67545;BME280;54380;47.770;11.150;2023-04-21T02:52:06;94404.94;;;5.79;66.23
67545;BME280;54380;47.770;11.150;2023-04-21T02:54:33;94401.00;;;5.77;66.56
67545;BME280;54380;47.770;11.150;2023-04-21T02:57:01;94407.03;;;5.77;66.63
67545;BME280;54380;47.770;11.150;2023-04-21T02:59:28;94394.94;;;5.76;66.71
67545;BME280;54380;47.770;11.150;2023-04-21T03:01:58;94388.69;;;5.77;66.67
67545;BME280;54380;47.770;11.150;2023-04-21T03:04:24;94387.31;;;5.75;66.89
67545;BME280;54380;47.770;11.150;2023-04-21T03:06:52;94375.72;;;5.70;66.72
67545;BME280;54380;47.770;11.150;2023-04-21T03:09:19;94371.97;;;5.66;66.58
67545;BME280;54380;47.770;11.150;2023-04-21T03:11:47;94369.59;;;5.65;66.92
67545;BME280;54380;47.770;11.150;2023-04-21T03:14:14;94369.38;;;5.66;66.70
67545;BME280;54380;47.770;11.150;2023-04-21T03:16:41;94366.50;;;5.68;66.51
67545;BME280;54380;47.770;11.150;2023-04-21T03:19:08;94362.31;;;5.67;67.06
67545;BME280;54380;47.770;11.150;2023-04-21T03:21:35;94364.66;;;5.68;66.38
67545;BME280;54380;47.770;11.150;2023-04-21T03:24:04;94383.81;;;5.69;66.87
67545;BME280;54380;47.770;11.150;2023-04-21T03:26:30;94384.59;;;5.69;66.85
67545;BME280;54380;47.770;11.150;2023-04-21T03:28:57;94379.84;;;5.66;66.54
67545;BME280;54380;47.770;11.150;2023-04-21T03:31:23;94369.13;;;5.68;66.81
67545;BME280;54380;47.770;11.150;2023-04-21T03:33:50;94375.72;;;5.70;66.20
67545;BME280;54380;47.770;11.150;2023-04-21T03:36:17;94382.78;;;5.70;66.37
67545;BME280;54380;47.770;11.150;2023-04-21T03:38:44;94376.97;;;5.68;66.68
67545;BME280;54380;47.770;11.150;2023-04-21T03:41:12;94373.78;;;5.66;66.91
67545;BME280;54380;47.770;11.150;2023-04-21T03:43:38;94366.97;;;5.65;66.77
67545;BME280;54380;47.770;11.150;2023-04-21T03:46:05;94362.75;;;5.64;66.92
67545;BME280;54380;47.770;11.150;2023-04-21T03:48:32;94365.94;;;5.66;66.48
67545;BME280;54380;47.770;11.150;2023-04-21T03:50:58;94365.94;;;5.66;65.99
67545;BME280;54380;47.770;11.150;2023-04-21T03:53:25;94369.59;;;5.65;66.23
67545;BME280;54380;47.770;11.150;2023-04-21T03:55:51;94366.28;;;5.58;65.75
67545;BME280;54380;47.770;11.150;2023-04-21T03:58:20;94363.72;;;5.46;65.54
67545;BME280;54380;47.770;11.150;2023-04-21T04:00:46;94355.44;;;5.37;65.96
67545;BME280;54380;47.770;11.150;2023-04-21T04:03:13;94361.81;;;5.30;66.32
67545;BME280;54380;47.770;11.150;2023-04-21T04:05:39;94369.09;;;5.27;66.14
67545;BME280;54380;47.770;11.150;2023-04-21T04:08:06;94357.25;;;5.25;66.34
67545;BME280;54380;47.770;11.150;2023-04-21T04:10:33;94356.56;;;5.18;66.55
67545;BME280;54380;47.770;11.150;2023-04-21T04:12:59;94361.69;;;5.13;66.03
67545;BME280;54380;47.770;11.150;2023-04-21T04:15:28;94370.22;;;5.08;66.41
67545;BME280;54380;47.770;11.150;2023-04-21T04:17:54;94375.13;;;5.04;66.22
67545;BME280;54380;47.770;11.150;2023-04-21T04:20:21;94378.97;;;5.02;66.75
67545;BME280;54380;47.770;11.150;2023-04-21T04:22:48;94376.63;;;5.00;66.53
67545;BME280;54380;47.770;11.150;2023-04-21T04:25:15;94364.31;;;5.01;67.16
67545;BME280;54380;47.770;11.150;2023-04-21T04:27:42;94379.22;;;5.00;66.18
67545;BME280;54380;47.770;11.150;2023-04-21T04:30:12;94378.06;;;4.96;66.75
67545;BME280;54380;47.770;11.150;2023-04-21T04:32:41;94376.13;;;4.92;67.25
67545;BME280;54380;47.770;11.150;2023-04-21T04:35:08;94377.16;;;4.91;67.60
67545;BME280;54380;47.770;11.150;2023-04-21T04:37:35;94381.16;;;4.93;67.56
67545;BME280;54380;47.770;11.150;2023-04-21T04:40:02;94385.94;;;4.96;67.12
67545;BME280;54380;47.770;11.150;2023-04-21T04:42:34;94388.53;;;4.96;67.09
67545;BME280;54380;47.770;11.150;2023-04-21T04:45:02;94386.97;;;4.95;66.33
67545;BME280;54380;47.770;11.150;2023-04-21T04:47:29;94390.00;;;4.92;66.70
67545;BME280;54380;47.770;11.150;2023-04-21T04:49:57;94384.56;;;4.94;67.44
67545;BME280;54380;47.770;11.150;2023-04-21T04:52:24;94381.72;;;4.95;66.64
67545;BME280;54380;47.770;11.150;2023-04-21T04:54:51;94381.72;;;4.95;66.56
67545;BME280;54380;47.770;11.150;2023-04-21T04:57:21;94390.00;;;4.92;66.73
67545;BME280;54380;47.770;11.150;2023-04-21T04:59:48;94395.47;;;4.91;66.89
67545;BME280;54380;47.770;11.150;2023-04-21T05:02:14;94381.59;;;4.90;67.34
67545;BME280;54380;47.770;11.150;2023-04-21T05:04:41;94378.53;;;4.93;67.71
67545;BME280;54380;47.770;11.150;2023-04-21T05:07:09;94388.66;;;5.01;67.34
67545;BME280;54380;47.770;11.150;2023-04-21T05:09:36;94398.19;;;5.07;66.88
67545;BME280;54380;47.770;11.150;2023-04-21T05:12:03;94401.41;;;5.10;67.21
67545;BME280;54380;47.770;11.150;2023-04-21T05:14:30;94392.50;;;5.11;67.22
67545;BME280;54380;47.770;11.150;2023-04-21T05:16:59;94399.00;;;5.08;67.54
67545;BME280;54380;47.770;11.150;2023-04-21T05:19:26;94399.56;;;5.10;67.59
67545;BME280;54380;47.770;11.150;2023-04-21T05:21:52;94394.44;;;5.15;67.64
67545;BME280;54380;47.770;11.150;2023-04-21T05:24:24;94399.78;;;5.20;67.24
67545;BME280;54380;47.770;11.150;2023-04-21T05:26:51;94394.69;;;5.25;67.29
67545;BME280;54380;47.770;11.150;2023-04-21T05:29:18;94403.44;;;5.31;67.55
67545;BME280;54380;47.770;11.150;2023-04-21T05:31:44;94404.56;;;5.35;66.65
67545;BME280;54380;47.770;11.150;2023-04-21T05:34:11;94410.16;;;5.39;66.55
67545;BME280;54380;47.770;11.150;2023-04-21T05:36:39;94406.53;;;5.40;67.12
67545;BME280;54380;47.770;11.150;2023-04-21T05:39:07;94409.69;;;5.42;67.25
67545;BME280;54380;47.770;11.150;2023-04-21T05:41:35;94413.19;;;5.47;66.80
67545;BME280;54380;47.770;11.150;2023-04-21T05:44:01;94407.28;;;5.52;66.38
67545;BME280;54380;47.770;11.150;2023-04-21T05:46:28;94408.19;;;5.58;66.91
67545;BME280;54380;47.770;11.150;2023-04-21T05:48:55;94413.53;;;5.63;66.74
67545;BME280;54380;47.770;11.150;2023-04-21T05:51:22;94414.09;;;5.65;66.22
67545;BME280;54380;47.770;11.150;2023-04-21T05:53:49;94410.78;;;5.69;66.66
67545;BME280;54380;47.770;11.150;2023-04-21T05:56:16;94427.88;;;5.72;66.41
67545;BME280;54380;47.770;11.150;2023-04-21T05:58:45;94417.41;;;5.72;66.33
67545;BME280;54380;47.770;11.150;2023-04-21T06:01:12;94427.97;;;5.77;65.80
67545;BME280;54380;47.770;11.150;2023-04-21T06:03:39;94427.50;;;5.80;66.41
67545;BME280;54380;47.770;11.150;2023-04-21T06:06:06;94423.63;;;5.83;66.17
67545;BME280;54380;47.770;11.150;2023-04-21T06:08:33;94421.81;;;5.83;66.13
67545;BME280;54380;47.770;11.150;2023-04-21T06:11:00;94413.72;;;5.85;66.30
67545;BME280;54380;47.770;11.150;2023-04-21T06:13:26;94414.25;;;5.87;65.95
67545;BME280;54380;47.770;11.150;2023-04-21T06:15:55;94418.81;;;5.91;65.58
67545;BME280;54380;47.770;11.150;2023-04-21T06:18:22;94420.06;;;5.89;65.45
67545;BME280;54380;47.770;11.150;2023-04-21T06:20:49;94420.88;;;5.89;66.34
67545;BME280;54380;47.770;11.150;2023-04-21T06:23:16;94414.50;;;5.97;65.83
67545;BME280;54380;47.770;11.150;2023-04-21T06:25:43;94408.78;;;6.00;65.90
67545;BME280;54380;47.770;11.150;2023-04-21T06:28:10;94403.81;;;5.99;66.21
67545;BME280;54380;47.770;11.150;2023-04-21T06:30:36;94412.66;;;6.09;65.97
67545;BME280;54380;47.770;11.150;2023-04-21T06:33:05;94408.16;;;6.22;65.98
67545;BME280;54380;47.770;11.150;2023-04-21T06:35:32;94400.06;;;6.23;65.75
67545;BME280;54380;47.770;11.150;2023-04-21T06:37:59;94402.53;;;6.30;65.57
67545;BME280;54380;47.770;11.150;2023-04-21T06:40:25;94401.81;;;6.34;65.46
67545;BME280;54380;47.770;11.150;2023-04-21T06:42:52;94399.84;;;6.42;65.48
67545;BME280;54380;47.770;11.150;2023-04-21T06:45:19;94408.94;;;6.51;65.79
67545;BME280;54380;47.770;11.150;2023-04-21T06:47:46;94407.78;;;6.58;65.22
67545;BME280;54380;47.770;11.150;2023-04-21T06:50:14;94413.63;;;6.66;65.21
67545;BME280;54380;47.770;11.150;2023-04-21T06:52:41;94415.56;;;6.70;65.06
67545;BME280;54380;47.770;11.150;2023-04-21T06:55:08;94405.38;;;6.74;64.84
67545;BME280;54380;47.770;11.150;2023-04-21T06:57:35;94410.25;;;6.82;65.24
67545;BME280;54380;47.770;11.150;2023-04-21T07:00:01;94407.78;;;6.92;64.87
67545;BME280;54380;47.770;11.150;2023-04-21T07:02:31;94411.91;;;7.05;64.90
67545;BME280;54380;47.770;11.150;2023-04-21T07:04:57;94403.00;;;7.23;65.13
67545;BME280;54380;47.770;11.150;2023-04-21T07:07:26;94394.38;;;7.44;64.77
67545;BME280;54380;47.770;11.150;2023-04-21T07:09:53;94397.03;;;7.66;64.36
67545;BME280;54380;47.770;11.150;2023-04-21T07:12:19;94390.94;;;7.83;63.93
67545;BME280;54380;47.770;11.150;2023-04-21T07:14:46;94399.47;;;7.95;63.15
67545;BME280;54380;47.770;11.150;2023-04-21T07:17:13;94395.09;;;8.01;63.12
67545;BME280;54380;47.770;11.150;2023-04-21T07:19:40;94394.09;;;8.07;63.38
67545;BME280;54380;47.770;11.150;2023-04-21T07:22:06;94397.84;;;8.16;63.61
67545;BME280;54380;47.770;11.150;2023-04-21T07:24:36;94399.56;;;8.27;64.22
67545;BME280;54380;47.770;11.150;2023-04-21T07:27:03;94397.91;;;8.43;64.87
67545;BME280;54380;47.770;11.150;2023-04-21T07:29:29;94400.72;;;8.59;65.40
67545;BME280;54380;47.770;11.150;2023-04-21T07:31:57;94402.09;;;8.66;65.45
67545;BME280;54380;47.770;11.150;2023-04-21T07:34:24;94407.38;;;8.71;65.26
67545;BME280;54380;47.770;11.150;2023-04-21T07:36:51;94407.13;;;8.73;65.14
67545;BME280;54380;47.770;11.150;2023-04-21T07:39:17;94408.75;;;8.79;65.02
67545;BME280;54380;47.770;11.150;2023-04-21T07:41:46;94395.44;;;8.91;65.61
67545;BME280;54380;47.770;11.150;2023-04-21T07:44:12;94390.25;;;9.01;64.15
67545;BME280;54380;47.770;11.150;2023-04-21T07:46:39;94393.75;;;9.12;64.79
67545;BME280;54380;47.770;11.150;2023-04-21T07:49:07;94401.50;;;9.29;64.90
67545;BME280;54380;47.770;11.150;2023-04-21T07:51:33;94399.41;;;9.31;64.52
67545;BME280;54380;47.770;11.150;2023-04-21T07:54:00;94394.16;;;9.31;64.25
67545;BME280;54380;47.770;11.150;2023-04-21T07:56:29;94400.78;;;9.38;63.99
67545;BME280;54380;47.770;11.150;2023-04-21T07:58:58;94397.47;;;9.53;64.47
67545;BME280;54380;47.770;11.150;2023-04-21T08:01:25;94383.00;;;9.66;64.20
67545;BME280;54380;47.770;11.150;2023-04-21T08:03:52;94391.75;;;9.72;63.85
67545;BME280;54380;47.770;11.150;2023-04-21T08:06:18;94383.88;;;9.82;63.75
67545;BME280;54380;47.770;11.150;2023-04-21T08:08:45;94379.47;;;9.93;62.33
67545;BME280;54380;47.770;11.150;2023-04-21T08:11:12;94386.84;;;9.96;61.27
67545;BME280;54380;47.770;11.150;2023-04-21T08:13:39;94385.06;;;10.06;62.70
67545;BME280;54380;47.770;11.150;2023-04-21T08:16:07;94384.81;;;10.23;60.65
67545;BME280;54380;47.770;11.150;2023-04-21T08:18:33;94380.38;;;10.29;61.12
67545;BME280;54380;47.770;11.150;2023-04-21T08:21:00;94383.84;;;10.45;60.67
67545;BME280;54380;47.770;11.150;2023-04-21T08:23:28;94375.41;;;10.58;60.32
67545;BME280;54380;47.770;11.150;2023-04-21T08:25:57;94371.47;;;10.71;59.89
67545;BME280;54380;47.770;11.150;2023-04-21T08:28:24;94369.63;;;10.82;60.14
67545;BME280;54380;47.770;11.150;2023-04-21T08:30:50;94372.28;;;10.87;60.33
67545;BME280;54380;47.770;11.150;2023-04-21T08:33:18;94376.00;;;10.91;60.96
67545;BME280;54380;47.770;11.150;2023-04-21T08:35:46;94365.44;;;10.91;60.55
67545;BME280;54380;47.770;11.150;2023-04-21T08:38:28;94361.72;;;10.97;61.14
67545;BME280;54380;47.770;11.150;2023-04-21T08:40:54;94365.69;;;11.15;61.33
67545;BME280;54380;47.770;11.150;2023-04-21T08:43:23;94362.72;;;11.37;59.96
67545;BME280;54380;47.770;11.150;2023-04-21T08:45:50;94356.91;;;11.45;58.71
67545;BME280;54380;47.770;11.150;2023-04-21T08:48:21;94355.06;;;11.40;59.03
67545;BME280;54380;47.770;11.150;2023-04-21T08:50:49;94364.31;;;11.43;59.80
67545;BME280;54380;47.770;11.150;2023-04-21T08:53:16;94356.63;;;11.47;60.12
67545;BME280;54380;47.770;11.150;2023-04-21T08:55:44;94357.41;;;11.52;59.41
67545;BME280;54380;47.770;11.150;2023-04-21T08:58:26;94356.38;;;11.53;59.39
67545;BME280;54380;47.770;11.150;2023-04-21T09:01:10;94351.59;;;11.55;59.81
67545;BME280;54380;47.770;11.150;2023-04-21T09:27:31;94339.00;;;12.91;58.39
67545;BME280;54380;47.770;11.150;2023-04-21T09:30:01;94335.41;;;13.06;57.65
67545;BME280;54380;47.770;11.150;2023-04-21T09:32:27;94340.56;;;13.21;58.26
67545;BME280;54380;47.770;11.150;2023-04-21T09:34:58;94339.63;;;13.41;58.16
67545;BME280;54380;47.770;11.150;2023-04-21T09:37:36;94335.94;;;13.61;57.88
67545;BME280;54380;47.770;11.150;2023-04-21T09:40:17;94342.16;;;13.75;56.00
67545;BME280;54380;47.770;11.150;2023-04-21T10:56:58;94282.81;;;18.07;47.76
67545;BME280;54380;47.770;11.150;2023-04-21T10:59:39;94283.28;;;18.17;47.78
67545;BME280;54380;47.770;11.150;2023-04-21T11:02:19;94289.41;;;18.27;47.11
67545;BME280;54380;47.770;11.150;2023-04-21T11:05:01;94285.66;;;18.28;45.96
67545;BME280;54380;47.770;11.150;2023-04-21T11:07:41;94279.69;;;18.31;48.20
67545;BME280;54380;47.770;11.150;2023-04-21T11:10:23;94273.75;;;18.51;47.50
67545;BME280;54380;47.770;11.150;2023-04-21T11:39:28;94255.78;;;19.51;45.96
67545;BME280;54380;47.770;11.150;2023-04-21T11:42:09;94251.63;;;19.71;45.51
67545;BME280;54380;47.770;11.150;2023-04-21T11:44:41;94248.69;;;19.85;43.71
67545;BME280;54380;47.770;11.150;2023-04-21T11:47:22;94242.47;;;19.72;43.21
67545;BME280;54380;47.770;11.150;2023-04-21T11:49:51;94241.72;;;19.63;43.83
67545;BME280;54380;47.770;11.150;2023-04-21T11:52:21;94242.94;;;19.65;44.75
67545;BME280;54380;47.770;11.150;2023-04-21T11:57:55;94246.13;;;19.97;43.38
67545;BME280;54380;47.770;11.150;2023-04-21T12:00:37;94241.69;;;20.01;43.85
67545;BME280;54380;47.770;11.150;2023-04-21T12:03:07;94242.69;;;20.17;43.46
67545;BME280;54380;47.770;11.150;2023-04-21T12:05:35;94243.06;;;20.28;42.98
67545;BME280;54380;47.770;11.150;2023-04-21T12:08:18;94237.91;;;20.23;42.66
67545;BME280;54380;47.770;11.150;2023-04-21T12:10:59;94234.44;;;20.23;41.37
67545;BME280;54380;47.770;11.150;2023-04-21T12:13:41;94241.44;;;20.15;43.14
67545;BME280;54380;47.770;11.150;2023-04-21T12:16:15;94234.56;;;20.26;42.91
67545;BME280;54380;47.770;11.150;2023-04-21T12:18:43;94230.72;;;20.36;41.24
67545;BME280;54380;47.770;11.150;2023-04-21T12:21:26;94233.06;;;20.37;41.25
67545;BME280;54380;47.770;11.150;2023-04-21T12:23:53;94237.56;;;20.25;42.11
67545;BME280;54380;47.770;11.150;2023-04-21T12:26:33;94228.63;;;20.21;42.33
67545;BME280;54380;47.770;11.150;2023-04-21T12:49:24;94212.59;;;20.75;42.99
67545;BME280;54380;47.770;11.150;2023-04-21T12:51:51;94202.97;;;20.74;42.74
67545;BME280;54380;47.770;11.150;2023-04-21T12:54:18;94210.13;;;20.70;42.98
67545;BME280;54380;47.770;11.150;2023-04-21T12:56:46;94203.84;;;20.66;42.97
67545;BME280;54380;47.770;11.150;2023-04-21T12:59:26;94217.16;;;20.74;42.85
67545;BME280;54380;47.770;11.150;2023-04-21T13:01:54;94207.72;;;20.89;42.32
67545;BME280;54380;47.770;11.150;2023-04-21T13:04:39;94205.94;;;21.05;42.14
67545;BME280;54380;47.770;11.150;2023-04-21T13:07:10;94200.94;;;21.16;41.84
67545;BME280;54380;47.770;11.150;2023-04-21T13:09:51;94207.88;;;21.30;41.11
67545;BME280;54380;47.770;11.150;2023-04-21T13:12:32;94198.38;;;21.32;41.17
67545;BME280;54380;47.770;11.150;2023-04-21T13:15:01;94202.59;;;21.09;41.74
67545;BME280;54380;47.770;11.150;2023-04-21T13:17:42;94202.50;;;21.05;41.75
67545;BME280;54380;47.770;11.150;2023-04-21T17:23:01;94152.66;;;16.98;52.41
67545;BME280;54380;47.770;11.150;2023-04-21T17:25:28;94152.97;;;16.96;52.34
67545;BME280;54380;47.770;11.150;2023-04-21T17:27:55;94155.94;;;16.95;52.47
67545;BME280;54380;47.770;11.150;2023-04-21T17:30:22;94160.78;;;16.93;52.58
67545;BME280;54380;47.770;11.150;2023-04-21T17:32:48;94161.41;;;16.89;52.41
67545;BME280;54380;47.770;11.150;2023-04-21T17:35:25;94160.47;;;16.85;52.69
67545;BME280;54380;47.770;11.150;2023-04-21T17:37:52;94158.88;;;16.84;52.62
67545;BME280;54380;47.770;11.150;2023-04-21T17:40:20;94151.81;;;16.80;52.54
67545;BME280;54380;47.770;11.150;2023-04-21T17:42:47;94143.72;;;16.71;52.67
67545;BME280;54380;47.770;11.150;2023-04-21T17:45:13;94156.03;;;16.58;52.86
67545;BME280;54380;47.770;11.150;2023-04-21T17:47:40;94147.19;;;16.40;53.32
67545;BME280;54380;47.770;11.150;2023-04-21T17:50:07;94150.69;;;16.27;53.56
67545;BME280;54380;47.770;11.150;2023-04-21T17:52:35;94149.56;;;16.19;53.62
67545;BME280;54380;47.770;11.150;2023-04-21T17:55:02;94153.13;;;16.15;54.04
67545;BME280;54380;47.770;11.150;2023-04-21T17:57:33;94155.13;;;16.09;54.46
67545;BME280;54380;47.770;11.150;2023-04-21T17:59:59;94167.94;;;16.07;54.53
67545;BME280;54380;47.770;11.150;2023-04-21T18:02:26;94183.59;;;16.09;55.34
67545;BME280;54380;47.770;11.150;2023-04-21T18:04:53;94186.88;;;16.06;55.91
67545;BME280;54380;47.770;11.150;2023-04-21T18:07:20;94189.47;;;15.97;54.84
67545;BME280;54380;47.770;11.150;2023-04-21T18:09:47;94200.50;;;15.90;55.01
67545;BME280;54380;47.770;11.150;2023-04-21T18:12:16;94196.22;;;15.80;55.87
67545;BME280;54380;47.770;11.150;2023-04-21T18:14:46;94213.34;;;15.74;56.08
67545;BME280;54380;47.770;11.150;2023-04-21T18:17:12;94218.00;;;15.69;56.43
67545;BME280;54380;47.770;11.150;2023-04-21T18:19:42;94220.44;;;15.65;55.87
67545;BME280;54380;47.770;11.150;2023-04-21T18:22:09;94223.69;;;15.62;55.90
67545;BME280;54380;47.770;11.150;2023-04-21T18:24:36;94229.63;;;15.59;56.47
67545;BME280;54380;47.770;11.150;2023-04-21T18:27:03;94227.84;;;15.54;56.64
67545;BME280;54380;47.770;11.150;2023-04-21T18:29:30;94240.66;;;15.52;56.22
67545;BME280;54380;47.770;11.150;2023-04-21T18:31:58;94233.75;;;15.51;55.86
67545;BME280;54380;47.770;11.150;2023-04-21T18:34:25;94230.09;;;15.47;55.45
67545;BME280;54380;47.770;11.150;2023-04-21T18:36:52;94232.28;;;15.45;55.87
67545;BME280;54380;47.770;11.150;2023-04-21T18:39:18;94231.81;;;15.43;55.75
67545;BME280;54380;47.770;11.150;2023-04-21T18:41:45;94242.53;;;15.38;55.70
67545;BME280;54380;47.770;11.150;2023-04-21T18:44:13;94247.16;;;15.32;55.62
67545;BME280;54380;47.770;11.150;2023-04-21T18:46:41;94245.88;;;15.30;55.60
67545;BME280;54380;47.770;11.150;2023-04-21T18:49:09;94245.06;;;15.29;55.83
67545;BME280;54380;47.770;11.150;2023-04-21T18:51:36;94252.56;;;15.27;55.89
67545;BME280;54380;47.770;11.150;2023-04-21T18:54:03;94250.97;;;15.26;56.41
67545;BME280;54380;47.770;11.150;2023-04-21T18:56:30;94253.44;;;15.23;56.59
67545;BME280;54380;47.770;11.150;2023-04-21T18:58:58;94248.41;;;15.21;56.63
67545;BME280;54380;47.770;11.150;2023-04-21T19:01:24;94250.56;;;15.19;56.79
67545;BME280;54380;47.770;11.150;2023-04-21T19:03:51;94242.91;;;15.18;56.70
67545;BME280;54380;47.770;11.150;2023-04-21T19:06:20;94238.69;;;15.17;56.19
67545;BME280;54380;47.770;11.150;2023-04-21T19:08:47;94229.91;;;15.16;56.20
67545;BME280;54380;47.770;11.150;2023-04-21T19:11:16;94226.97;;;15.18;55.56
67545;BME280;54380;47.770;11.150;2023-04-21T19:13:43;94216.91;;;15.14;54.56
67545;BME280;54380;47.770;11.150;2023-04-21T19:16:10;94222.69;;;15.03;53.37
67545;BME280;54380;47.770;11.150;2023-04-21T19:18:40;94220.63;;;14.86;53.45
67545;BME280;54380;47.770;11.150;2023-04-21T19:21:07;94222.16;;;14.73;53.05
67545;BME280;54380;47.770;11.150;2023-04-21T19:23:39;94230.03;;;14.64;52.62
67545;BME280;54380;47.770;11.150;2023-04-21T19:26:07;94253.22;;;14.59;53.90
67545;BME280;54380;47.770;11.150;2023-04-21T19:28:34;94274.56;;;14.54;54.83
67545;BME280;54380;47.770;11.150;2023-04-21T19:31:01;94271.09;;;14.53;55.27
67545;BME280;54380;47.770;11.150;2023-04-21T19:33:28;94273.47;;;14.55;55.26
67545;BME280;54380;47.770;11.150;2023-04-21T19:35:55;94279.56;;;14.55;55.59